sensor_id;sensor_type;location;lat;lon;timestamp;P1;durP1;ratioP1;P2;durP2;ratioP2
22449;SDS011;11392;57.390;-2.468;2023-06-14T00:00:32;9.13;;;7.47;;
22449;SDS011;11392;57.390;-2.468;2023-06-14T00:03:01;10.32;;;7.57;;
22449;SDS011;11392;57.390;-2.468;2023-06-14T00:05:30;9.05;;;7.85;;
22449;SDS011;11392;57.390;-2.468;2023-06-14T00:08:05;8.38;;;7.00;;
22449;SDS011;11392;57.390;-2.468;2023-06-14T00:10:34;8.90;;;7.55;;
22449;SDS011;11392;57.390;-2.468;2023-06-14T00:13:02;7.85;;;7.05;;
22449;SDS011;11392;57.390;-2.468;2023-06-14T00:15:33;11.27;;;8.15;;
22449;SDS011;11392;57.390;-2.468;2023-06-14T00:18:01;8.50;;;7.60;;
22449;SDS011;11392;57.390;-2.468;2023-06-14T00:20:30;8.80;;;7.53;;
22449;SDS011;11392;57.390;-2.468;2023-06-14T00:22:59;8.55;;;7.68;;
22449;SDS011;11392;57.390;-2.468;2023-06-14T00:25:27;11.30;;;8.00;;
22449;SDS011;11392;57.390;-2.468;2023-06-14T00:27:56;10.20;;;7.47;;
22449;SDS011;11392;57.390;-2.468;2023-06-14T00:30:24;12.15;;;7.97;;
22449;SDS011;11392;57.390;-2.468;2023-06-14T00:32:51;8.98;;;8.07;;
22449;SDS011;11392;57.390;-2.468;2023-06-14T00:35:19;8.10;;;7.30;;
22449;SDS011;11392;57.390;-2.468;2023-06-14T00:37:46;9.98;;;8.98;;
22449;SDS011;11392;57.390;-2.468;2023-06-14T00:40:13;9.85;;;8.85;;
22449;SDS011;11392;57.390;-2.468;2023-06-14T00:42:40;8.93;;;7.43;;
22449;SDS011;11392;57.390;-2.468;2023-06-14T00:45:08;9.32;;;8.13;;
22449;SDS011;11392;57.390;-2.468;2023-06-14T00:47:35;10.68;;;8.63;;
22449;SDS011;11392;57.390;-2.468;2023-06-14T00:50:07;8.88;;;7.35;;
22449;SDS011;11392;57.390;-2.468;2023-06-14T00:52:36;11.38;;;8.30;;
22449;SDS011;11392;57.390;-2.468;2023-06-14T00:55:03;9.65;;;8.65;;
22449;SDS011;11392;57.390;-2.468;2023-06-14T00:57:31;9.38;;;8.48;;
22449;SDS011;11392;57.390;-2.468;2023-06-14T00:59:58;14.07;;;9.57;;
22449;SDS011;11392;57.390;-2.468;2023-06-14T01:02:26;14.07;;;9.57;;
22449;SDS011;11392;57.390;-2.468;2023-06-14T01:04:53;10.65;;;9.13;;
22449;SDS011;11392;57.390;-2.468;2023-06-14T01:12:53;13.15;;;9.85;;
22449;SDS011;11392;57.390;-2.468;2023-06-14T01:15:27;10.07;;;9.07;;
22449;SDS011;11392;57.390;-2.468;2023-06-14T01:17:57;9.70;;;7.22;;
22449;SDS011;11392;57.390;-2.468;2023-06-14T01:20:31;11.13;;;9.90;;
22449;SDS011;11392;57.390;-2.468;2023-06-14T01:22:59;12.30;;;10.07;;
22449;SDS011;11392;57.390;-2.468;2023-06-14T01:25:26;10.25;;;9.18;;
22449;SDS011;11392;57.390;-2.468;2023-06-14T01:28:00;11.60;;;10.10;;
22449;SDS011;11392;57.390;-2.468;2023-06-14T01:30:30;11.63;;;10.07;;
22449;SDS011;11392;57.390;-2.468;2023-06-14T01:33:00;11.32;;;9.88;;
22449;SDS011;11392;57.390;-2.468;2023-06-14T01:35:28;13.75;;;10.57;;
22449;SDS011;11392;57.390;-2.468;2023-06-14T01:37:55;16.65;;;11.60;;
22449;SDS011;11392;57.390;-2.468;2023-06-14T01:40:24;11.95;;;10.73;;
22449;SDS011;11392;57.390;-2.468;2023-06-14T01:42:52;13.32;;;11.50;;
22449;SDS011;11392;57.390;-2.468;2023-06-14T01:45:20;14.23;;;11.20;;
22449;SDS011;11392;57.390;-2.468;2023-06-14T01:47:49;18.23;;;11.15;;
22449;SDS011;11392;57.390;-2.468;2023-06-14T01:50:18;13.82;;;10.80;;
22449;SDS011;11392;57.390;-2.468;2023-06-14T01:52:47;12.25;;;10.55;;
22449;SDS011;11392;57.390;-2.468;2023-06-14T01:55:14;11.55;;;10.23;;
22449;SDS011;11392;57.390;-2.468;2023-06-14T01:57:44;12.35;;;11.05;;
22449;SDS011;11392;57.390;-2.468;2023-06-14T02:00:11;11.93;;;10.70;;
22449;SDS011;11392;57.390;-2.468;2023-06-14T02:02:39;12.68;;;10.40;;
22449;SDS011;11392;57.390;-2.468;2023-06-14T02:05:07;12.80;;;11.10;;
22449;SDS011;11392;57.390;-2.468;2023-06-14T02:07:35;10.48;;;8.63;;
22449;SDS011;11392;57.390;-2.468;2023-06-14T02:10:03;11.63;;;9.82;;
22449;SDS011;11392;57.390;-2.468;2023-06-14T02:12:31;12.52;;;9.77;;
22449;SDS011;11392;57.390;-2.468;2023-06-14T02:14:58;9.45;;;8.38;;
22449;SDS011;11392;57.390;-2.468;2023-06-14T02:17:25;14.00;;;11.93;;
22449;SDS011;11392;57.390;-2.468;2023-06-14T02:19:52;11.80;;;10.32;;
22449;SDS011;11392;57.390;-2.468;2023-06-14T02:22:19;11.40;;;9.50;;
22449;SDS011;11392;57.390;-2.468;2023-06-14T02:24:48;12.93;;;11.60;;
22449;SDS011;11392;57.390;-2.468;2023-06-14T02:27:24;14.63;;;12.40;;
22449;SDS011;11392;57.390;-2.468;2023-06-14T02:29:51;13.95;;;12.45;;
22449;SDS011;11392;57.390;-2.468;2023-06-14T02:32:18;11.75;;;10.55;;
22449;SDS011;11392;57.390;-2.468;2023-06-14T02:34:46;15.40;;;13.15;;
22449;SDS011;11392;57.390;-2.468;2023-06-14T02:37:16;17.55;;;13.88;;
22449;SDS011;11392;57.390;-2.468;2023-06-14T02:39:43;14.98;;;12.82;;
22449;SDS011;11392;57.390;-2.468;2023-06-14T02:42:10;11.60;;;10.00;;
22449;SDS011;11392;57.390;-2.468;2023-06-14T02:44:37;14.27;;;11.15;;
22449;SDS011;11392;57.390;-2.468;2023-06-14T02:47:04;15.20;;;13.43;;
22449;SDS011;11392;57.390;-2.468;2023-06-14T02:49:32;13.57;;;12.13;;
22449;SDS011;11392;57.390;-2.468;2023-06-14T02:51:59;16.08;;;13.52;;
22449;SDS011;11392;57.390;-2.468;2023-06-14T02:54:26;13.15;;;11.05;;
22449;SDS011;11392;57.390;-2.468;2023-06-14T02:56:53;13.93;;;12.52;;
22449;SDS011;11392;57.390;-2.468;2023-06-14T02:59:20;12.30;;;10.63;;
22449;SDS011;11392;57.390;-2.468;2023-06-14T03:01:47;11.70;;;9.38;;
22449;SDS011;11392;57.390;-2.468;2023-06-14T03:04:15;13.65;;;10.73;;
22449;SDS011;11392;57.390;-2.468;2023-06-14T03:06:42;10.75;;;9.18;;
22449;SDS011;11392;57.390;-2.468;2023-06-14T03:09:11;12.90;;;11.60;;
22449;SDS011;11392;57.390;-2.468;2023-06-14T03:11:38;12.23;;;10.23;;
22449;SDS011;11392;57.390;-2.468;2023-06-14T03:14:05;12.10;;;10.57;;
22449;SDS011;11392;57.390;-2.468;2023-06-14T03:16:33;12.45;;;11.05;;
22449;SDS011;11392;57.390;-2.468;2023-06-14T03:19:01;12.82;;;11.13;;
22449;SDS011;11392;57.390;-2.468;2023-06-14T03:21:29;10.48;;;9.40;;
22449;SDS011;11392;57.390;-2.468;2023-06-14T03:23:56;10.10;;;8.70;;
22449;SDS011;11392;57.390;-2.468;2023-06-14T03:26:23;14.93;;;12.70;;
22449;SDS011;11392;57.390;-2.468;2023-06-14T03:28:51;12.82;;;11.05;;
22449;SDS011;11392;57.390;-2.468;2023-06-14T03:31:18;12.55;;;11.25;;
22449;SDS011;11392;57.390;-2.468;2023-06-14T03:33:45;9.15;;;8.25;;
22449;SDS011;11392;57.390;-2.468;2023-06-14T03:36:12;13.90;;;12.20;;
22449;SDS011;11392;57.390;-2.468;2023-06-14T03:38:39;13.40;;;11.73;;
22449;SDS011;11392;57.390;-2.468;2023-06-14T03:41:07;10.27;;;9.18;;
22449;SDS011;11392;57.390;-2.468;2023-06-14T03:43:34;12.90;;;11.48;;
22449;SDS011;11392;57.390;-2.468;2023-06-14T03:46:01;10.88;;;9.23;;
22449;SDS011;11392;57.390;-2.468;2023-06-14T03:48:28;10.80;;;8.85;;
22449;SDS011;11392;57.390;-2.468;2023-06-14T03:50:56;12.15;;;10.93;;
22449;SDS011;11392;57.390;-2.468;2023-06-14T03:53:26;11.20;;;9.27;;
22449;SDS011;11392;57.390;-2.468;2023-06-14T03:55:55;10.23;;;9.13;;
22449;SDS011;11392;57.390;-2.468;2023-06-14T03:58:23;10.77;;;9.68;;
22449;SDS011;11392;57.390;-2.468;2023-06-14T04:00:50;13.18;;;11.25;;
22449;SDS011;11392;57.390;-2.468;2023-06-14T04:03:17;12.05;;;10.85;;
22449;SDS011;11392;57.390;-2.468;2023-06-14T04:05:46;8.95;;;8.15;;
22449;SDS011;11392;57.390;-2.468;2023-06-14T04:08:15;10.38;;;9.25;;
22449;SDS011;11392;57.390;-2.468;2023-06-14T04:10:44;9.95;;;8.60;;
22449;SDS011;11392;57.390;-2.468;2023-06-14T04:13:11;8.30;;;7.50;;
22449;SDS011;11392;57.390;-2.468;2023-06-14T04:15:39;11.05;;;9.77;;
22449;SDS011;11392;57.390;-2.468;2023-06-14T04:18:12;11.52;;;9.57;;
22449;SDS011;11392;57.390;-2.468;2023-06-14T04:20:39;12.32;;;9.75;;
22449;SDS011;11392;57.390;-2.468;2023-06-14T04:23:15;12.27;;;10.35;;
22449;SDS011;11392;57.390;-2.468;2023-06-14T04:25:44;11.13;;;9.70;;
22449;SDS011;11392;57.390;-2.468;2023-06-14T04:28:12;11.05;;;9.90;;
22449;SDS011;11392;57.390;-2.468;2023-06-14T04:30:42;11.73;;;10.20;;
22449;SDS011;11392;57.390;-2.468;2023-06-14T04:33:09;12.40;;;11.13;;
22449;SDS011;11392;57.390;-2.468;2023-06-14T04:35:37;11.48;;;9.73;;
22449;SDS011;11392;57.390;-2.468;2023-06-14T04:38:05;13.82;;;12.48;;
22449;SDS011;11392;57.390;-2.468;2023-06-14T04:40:35;12.98;;;10.57;;
22449;SDS011;11392;57.390;-2.468;2023-06-14T04:43:09;11.88;;;10.40;;
22449;SDS011;11392;57.390;-2.468;2023-06-14T04:45:38;11.45;;;10.25;;
22449;SDS011;11392;57.390;-2.468;2023-06-14T04:48:06;9.70;;;8.73;;
22449;SDS011;11392;57.390;-2.468;2023-06-14T04:50:33;10.25;;;9.07;;
22449;SDS011;11392;57.390;-2.468;2023-06-14T04:53:01;8.45;;;7.53;;
22449;SDS011;11392;57.390;-2.468;2023-06-14T04:55:29;11.75;;;9.07;;
22449;SDS011;11392;57.390;-2.468;2023-06-14T04:57:56;10.65;;;9.43;;
22449;SDS011;11392;57.390;-2.468;2023-06-14T05:00:23;11.80;;;9.25;;
22449;SDS011;11392;57.390;-2.468;2023-06-14T05:02:50;12.85;;;10.27;;
22449;SDS011;11392;57.390;-2.468;2023-06-14T05:05:19;8.20;;;7.18;;
22449;SDS011;11392;57.390;-2.468;2023-06-14T05:07:46;10.13;;;7.63;;
22449;SDS011;11392;57.390;-2.468;2023-06-14T05:10:14;8.80;;;7.85;;
22449;SDS011;11392;57.390;-2.468;2023-06-14T05:12:41;12.65;;;10.32;;
22449;SDS011;11392;57.390;-2.468;2023-06-14T05:15:10;10.52;;;9.52;;
22449;SDS011;11392;57.390;-2.468;2023-06-14T05:17:37;9.43;;;8.38;;
22449;SDS011;11392;57.390;-2.468;2023-06-14T05:20:07;9.98;;;7.65;;
22449;SDS011;11392;57.390;-2.468;2023-06-14T05:22:36;8.00;;;6.90;;
22449;SDS011;11392;57.390;-2.468;2023-06-14T05:25:03;6.85;;;6.13;;
22449;SDS011;11392;57.390;-2.468;2023-06-14T05:27:31;8.63;;;6.82;;
22449;SDS011;11392;57.390;-2.468;2023-06-14T05:30:00;8.07;;;6.70;;
22449;SDS011;11392;57.390;-2.468;2023-06-14T05:32:28;9.20;;;7.38;;
22449;SDS011;11392;57.390;-2.468;2023-06-14T05:34:55;9.73;;;7.95;;
22449;SDS011;11392;57.390;-2.468;2023-06-14T05:37:22;7.88;;;7.07;;
22449;SDS011;11392;57.390;-2.468;2023-06-14T05:39:49;6.50;;;5.90;;
22449;SDS011;11392;57.390;-2.468;2023-06-14T05:42:16;8.35;;;7.45;;
22449;SDS011;11392;57.390;-2.468;2023-06-14T05:44:43;7.88;;;7.10;;
22449;SDS011;11392;57.390;-2.468;2023-06-14T05:47:10;7.10;;;6.40;;
22449;SDS011;11392;57.390;-2.468;2023-06-14T05:49:38;6.82;;;6.22;;
22449;SDS011;11392;57.390;-2.468;2023-06-14T05:52:05;7.80;;;7.10;;
22449;SDS011;11392;57.390;-2.468;2023-06-14T05:54:33;10.65;;;8.73;;
22449;SDS011;11392;57.390;-2.468;2023-06-14T05:57:00;7.72;;;7.03;;
22449;SDS011;11392;57.390;-2.468;2023-06-14T05:59:27;9.80;;;8.13;;
22449;SDS011;11392;57.390;-2.468;2023-06-14T06:01:55;9.50;;;8.23;;
22449;SDS011;11392;57.390;-2.468;2023-06-14T06:04:22;9.38;;;8.30;;
22449;SDS011;11392;57.390;-2.468;2023-06-14T06:06:50;10.15;;;8.60;;
22449;SDS011;11392;57.390;-2.468;2023-06-14T06:09:17;9.10;;;8.05;;
22449;SDS011;11392;57.390;-2.468;2023-06-14T06:11:45;9.80;;;8.18;;
22449;SDS011;11392;57.390;-2.468;2023-06-14T06:14:18;7.55;;;6.82;;
22449;SDS011;11392;57.390;-2.468;2023-06-14T06:16:45;8.95;;;7.78;;
22449;SDS011;11392;57.390;-2.468;2023-06-14T06:19:13;9.65;;;7.88;;
22449;SDS011;11392;57.390;-2.468;2023-06-14T06:21:40;9.05;;;7.57;;
22449;SDS011;11392;57.390;-2.468;2023-06-14T06:24:07;7.60;;;6.72;;
22449;SDS011;11392;57.390;-2.468;2023-06-14T06:26:34;7.68;;;6.93;;
22449;SDS011;11392;57.390;-2.468;2023-06-14T06:29:01;9.43;;;7.10;;
22449;SDS011;11392;57.390;-2.468;2023-06-14T06:31:29;7.13;;;6.43;;
22449;SDS011;11392;57.390;-2.468;2023-06-14T06:33:56;9.10;;;7.32;;
22449;SDS011;11392;57.390;-2.468;2023-06-14T06:36:23;7.22;;;6.38;;
22449;SDS011;11392;57.390;-2.468;2023-06-14T06:38:50;8.07;;;7.30;;
22449;SDS011;11392;57.390;-2.468;2023-06-14T06:41:18;9.82;;;7.70;;
22449;SDS011;11392;57.390;-2.468;2023-06-14T06:43:45;9.32;;;7.30;;
22449;SDS011;11392;57.390;-2.468;2023-06-14T06:46:12;7.55;;;6.85;;
22449;SDS011;11392;57.390;-2.468;2023-06-14T06:48:40;8.88;;;6.88;;
22449;SDS011;11392;57.390;-2.468;2023-06-14T06:51:06;9.10;;;7.28;;
22449;SDS011;11392;57.390;-2.468;2023-06-14T06:53:34;7.68;;;6.68;;
22449;SDS011;11392;57.390;-2.468;2023-06-14T06:56:10;9.25;;;6.82;;
22449;SDS011;11392;57.390;-2.468;2023-06-14T06:58:37;7.78;;;6.97;;
22449;SDS011;11392;57.390;-2.468;2023-06-14T07:01:04;9.50;;;7.03;;
22449;SDS011;11392;57.390;-2.468;2023-06-14T07:03:32;7.43;;;6.70;;
22449;SDS011;11392;57.390;-2.468;2023-06-14T07:05:59;8.18;;;6.82;;
22449;SDS011;11392;57.390;-2.468;2023-06-14T07:08:27;8.23;;;7.43;;
22449;SDS011;11392;57.390;-2.468;2023-06-14T07:10:54;7.53;;;6.53;;
22449;SDS011;11392;57.390;-2.468;2023-06-14T07:13:21;7.47;;;6.65;;
22449;SDS011;11392;57.390;-2.468;2023-06-14T07:15:48;6.43;;;5.80;;
22449;SDS011;11392;57.390;-2.468;2023-06-14T07:18:16;7.20;;;6.25;;
22449;SDS011;11392;57.390;-2.468;2023-06-14T07:20:43;8.63;;;6.63;;
22449;SDS011;11392;57.390;-2.468;2023-06-14T07:23:10;7.00;;;5.93;;
22449;SDS011;11392;57.390;-2.468;2023-06-14T07:25:37;7.18;;;6.18;;
22449;SDS011;11392;57.390;-2.468;2023-06-14T07:28:04;6.88;;;6.18;;
22449;SDS011;11392;57.390;-2.468;2023-06-14T07:30:31;6.78;;;5.85;;
22449;SDS011;11392;57.390;-2.468;2023-06-14T07:32:59;6.43;;;5.45;;
22449;SDS011;11392;57.390;-2.468;2023-06-14T07:35:26;7.45;;;6.03;;
22449;SDS011;11392;57.390;-2.468;2023-06-14T07:37:53;6.95;;;5.80;;
22449;SDS011;11392;57.390;-2.468;2023-06-14T07:40:20;5.85;;;5.25;;
22449;SDS011;11392;57.390;-2.468;2023-06-14T07:42:47;9.10;;;6.30;;
22449;SDS011;11392;57.390;-2.468;2023-06-14T07:45:17;7.68;;;5.45;;
22449;SDS011;11392;57.390;-2.468;2023-06-14T07:47:44;8.07;;;5.47;;
22449;SDS011;11392;57.390;-2.468;2023-06-14T07:50:12;7.35;;;5.65;;
22449;SDS011;11392;57.390;-2.468;2023-06-14T07:52:40;6.50;;;5.90;;
22449;SDS011;11392;57.390;-2.468;2023-06-14T07:55:07;8.75;;;5.93;;
22449;SDS011;11392;57.390;-2.468;2023-06-14T07:57:34;5.90;;;5.35;;
22449;SDS011;11392;57.390;-2.468;2023-06-14T08:00:02;6.40;;;5.85;;
22449;SDS011;11392;57.390;-2.468;2023-06-14T08:02:32;6.90;;;5.72;;
22449;SDS011;11392;57.390;-2.468;2023-06-14T08:04:59;8.75;;;5.78;;
22449;SDS011;11392;57.390;-2.468;2023-06-14T08:07:27;7.63;;;5.60;;
22449;SDS011;11392;57.390;-2.468;2023-06-14T08:09:54;6.97;;;5.72;;
22449;SDS011;11392;57.390;-2.468;2023-06-14T08:12:21;7.60;;;5.47;;
22449;SDS011;11392;57.390;-2.468;2023-06-14T08:14:49;5.43;;;4.80;;
22449;SDS011;11392;57.390;-2.468;2023-06-14T08:17:34;6.50;;;5.82;;
22449;SDS011;11392;57.390;-2.468;2023-06-14T08:20:02;12.93;;;6.43;;
22449;SDS011;11392;57.390;-2.468;2023-06-14T08:22:31;7.13;;;6.05;;
22449;SDS011;11392;57.390;-2.468;2023-06-14T08:25:02;6.35;;;5.75;;
22449;SDS011;11392;57.390;-2.468;2023-06-14T08:27:30;6.70;;;6.10;;
22449;SDS011;11392;57.390;-2.468;2023-06-14T08:29:57;7.10;;;6.13;;
22449;SDS011;11392;57.390;-2.468;2023-06-14T08:32:24;6.90;;;5.75;;
22449;SDS011;11392;57.390;-2.468;2023-06-14T08:34:51;8.75;;;5.40;;
22449;SDS011;11392;57.390;-2.468;2023-06-14T08:37:31;6.55;;;5.40;;
22449;SDS011;11392;57.390;-2.468;2023-06-14T08:40:00;6.70;;;6.00;;
22449;SDS011;11392;57.390;-2.468;2023-06-14T08:42:29;6.90;;;5.82;;
22449;SDS011;11392;57.390;-2.468;2023-06-14T08:44:58;7.20;;;5.60;;
22449;SDS011;11392;57.390;-2.468;2023-06-14T08:47:26;6.45;;;5.28;;
22449;SDS011;11392;57.390;-2.468;2023-06-14T08:49:55;7.45;;;6.05;;
22449;SDS011;11392;57.390;-2.468;2023-06-14T08:52:24;6.82;;;5.88;;
22449;SDS011;11392;57.390;-2.468;2023-06-14T08:54:56;9.10;;;5.18;;
22449;SDS011;11392;57.390;-2.468;2023-06-14T08:57:26;6.13;;;5.53;;
22449;SDS011;11392;57.390;-2.468;2023-06-14T08:59:57;6.55;;;5.63;;
22449;SDS011;11392;57.390;-2.468;2023-06-14T09:02:27;6.70;;;5.97;;
22449;SDS011;11392;57.390;-2.468;2023-06-14T09:04:56;6.20;;;5.60;;
22449;SDS011;11392;57.390;-2.468;2023-06-14T09:07:26;7.03;;;5.22;;
22449;SDS011;11392;57.390;-2.468;2023-06-14T09:10:09;9.25;;;6.13;;
22449;SDS011;11392;57.390;-2.468;2023-06-14T09:12:42;6.93;;;5.53;;
22449;SDS011;11392;57.390;-2.468;2023-06-14T09:15:10;7.15;;;5.75;;
22449;SDS011;11392;57.390;-2.468;2023-06-14T09:17:38;7.15;;;5.80;;
22449;SDS011;11392;57.390;-2.468;2023-06-14T09:20:06;6.57;;;5.93;;
22449;SDS011;11392;57.390;-2.468;2023-06-14T09:22:40;6.75;;;5.70;;
22449;SDS011;11392;57.390;-2.468;2023-06-14T09:25:08;6.63;;;5.93;;
22449;SDS011;11392;57.390;-2.468;2023-06-14T09:27:47;7.68;;;5.88;;
22449;SDS011;11392;57.390;-2.468;2023-06-14T09:30:14;7.68;;;6.07;;
22449;SDS011;11392;57.390;-2.468;2023-06-14T09:32:41;6.90;;;6.13;;
22449;SDS011;11392;57.390;-2.468;2023-06-14T09:35:09;8.90;;;5.80;;
22449;SDS011;11392;57.390;-2.468;2023-06-14T09:37:36;7.85;;;6.50;;
22449;SDS011;11392;57.390;-2.468;2023-06-14T09:40:05;7.15;;;5.85;;
22449;SDS011;11392;57.390;-2.468;2023-06-14T09:42:33;8.20;;;6.10;;
22449;SDS011;11392;57.390;-2.468;2023-06-14T09:45:02;5.95;;;5.45;;
22449;SDS011;11392;57.390;-2.468;2023-06-14T09:47:31;6.68;;;6.03;;
22449;SDS011;11392;57.390;-2.468;2023-06-14T09:49:58;6.50;;;5.90;;
22449;SDS011;11392;57.390;-2.468;2023-06-14T09:52:26;10.50;;;6.05;;
22449;SDS011;11392;57.390;-2.468;2023-06-14T09:54:54;6.18;;;5.60;;
22449;SDS011;11392;57.390;-2.468;2023-06-14T09:57:22;6.90;;;5.43;;
22449;SDS011;11392;57.390;-2.468;2023-06-14T09:59:53;6.15;;;5.55;;
22449;SDS011;11392;57.390;-2.468;2023-06-14T10:02:31;6.57;;;5.97;;
22449;SDS011;11392;57.390;-2.468;2023-06-14T10:05:04;7.22;;;5.68;;
22449;SDS011;11392;57.390;-2.468;2023-06-14T10:07:54;5.90;;;5.38;;
22449;SDS011;11392;57.390;-2.468;2023-06-14T10:10:25;6.40;;;5.80;;
22449;SDS011;11392;57.390;-2.468;2023-06-14T10:12:53;6.20;;;5.50;;
22449;SDS011;11392;57.390;-2.468;2023-06-14T10:15:32;7.72;;;6.40;;
22449;SDS011;11392;57.390;-2.468;2023-06-14T10:21:21;5.72;;;5.22;;
22449;SDS011;11392;57.390;-2.468;2023-06-14T10:24:07;5.38;;;4.97;;
22449;SDS011;11392;57.390;-2.468;2023-06-14T10:26:39;7.80;;;5.88;;
22449;SDS011;11392;57.390;-2.468;2023-06-14T10:29:17;6.43;;;5.82;;
22449;SDS011;11392;57.390;-2.468;2023-06-14T10:31:45;8.00;;;5.40;;
22449;SDS011;11392;57.390;-2.468;2023-06-14T10:34:29;6.15;;;5.55;;
22449;SDS011;11392;57.390;-2.468;2023-06-14T10:37:07;5.65;;;5.18;;
22449;SDS011;11392;57.390;-2.468;2023-06-14T10:39:42;6.60;;;6.00;;
22449;SDS011;11392;57.390;-2.468;2023-06-14T10:42:12;6.93;;;5.50;;
22449;SDS011;11392;57.390;-2.468;2023-06-14T10:47:23;6.45;;;5.50;;
22449;SDS011;11392;57.390;-2.468;2023-06-14T10:49:54;7.18;;;6.10;;
22449;SDS011;11392;57.390;-2.468;2023-06-14T10:52:28;6.57;;;5.40;;
22449;SDS011;11392;57.390;-2.468;2023-06-14T10:55:03;6.25;;;5.60;;
22449;SDS011;11392;57.390;-2.468;2023-06-14T10:57:46;6.45;;;5.55;;
22449;SDS011;11392;57.390;-2.468;2023-06-14T11:00:19;6.35;;;5.13;;
22449;SDS011;11392;57.390;-2.468;2023-06-14T11:05:53;6.35;;;5.50;;
22449;SDS011;11392;57.390;-2.468;2023-06-14T11:08:33;5.32;;;4.80;;
22449;SDS011;11392;57.390;-2.468;2023-06-14T11:11:23;6.15;;;5.53;;
22449;SDS011;11392;57.390;-2.468;2023-06-14T11:13:56;9.05;;;5.13;;
22449;SDS011;11392;57.390;-2.468;2023-06-14T11:16:25;6.00;;;5.38;;
22449;SDS011;11392;57.390;-2.468;2023-06-14T11:18:54;7.07;;;5.25;;
22449;SDS011;11392;57.390;-2.468;2023-06-14T11:21:21;8.52;;;5.40;;
22449;SDS011;11392;57.390;-2.468;2023-06-14T11:23:53;5.93;;;5.32;;
22449;SDS011;11392;57.390;-2.468;2023-06-14T11:26:31;6.63;;;4.82;;
22449;SDS011;11392;57.390;-2.468;2023-06-14T11:29:01;6.10;;;4.82;;
22449;SDS011;11392;57.390;-2.468;2023-06-14T11:31:28;5.40;;;4.97;;
22449;SDS011;11392;57.390;-2.468;2023-06-14T11:33:57;7.13;;;4.90;;
22449;SDS011;11392;57.390;-2.468;2023-06-14T11:36:28;5.88;;;5.20;;
22449;SDS011;11392;57.390;-2.468;2023-06-14T11:39:01;7.60;;;5.70;;
22449;SDS011;11392;57.390;-2.468;2023-06-14T11:41:42;6.03;;;5.47;;
22449;SDS011;11392;57.390;-2.468;2023-06-14T11:44:11;5.50;;;5.00;;
22449;SDS011;11392;57.390;-2.468;2023-06-14T11:46:38;6.53;;;4.68;;
22449;SDS011;11392;57.390;-2.468;2023-06-14T11:49:06;5.53;;;5.00;;
22449;SDS011;11392;57.390;-2.468;2023-06-14T11:51:35;6.60;;;5.10;;
22449;SDS011;11392;57.390;-2.468;2023-06-14T11:54:03;5.88;;;4.93;;
22449;SDS011;11392;57.390;-2.468;2023-06-14T11:56:32;5.10;;;4.70;;
22449;SDS011;11392;57.390;-2.468;2023-06-14T11:59:01;5.53;;;5.05;;
22449;SDS011;11392;57.390;-2.468;2023-06-14T12:01:35;6.88;;;5.80;;
22449;SDS011;11392;57.390;-2.468;2023-06-14T12:04:05;5.30;;;4.70;;
22449;SDS011;11392;57.390;-2.468;2023-06-14T12:06:33;5.20;;;4.70;;
22449;SDS011;11392;57.390;-2.468;2023-06-14T12:09:03;5.78;;;4.68;;
22449;SDS011;11392;57.390;-2.468;2023-06-14T12:11:33;6.47;;;5.80;;
22449;SDS011;11392;57.390;-2.468;2023-06-14T12:14:03;6.43;;;5.38;;
22449;SDS011;11392;57.390;-2.468;2023-06-14T12:16:32;5.80;;;4.63;;
22449;SDS011;11392;57.390;-2.468;2023-06-14T12:19:01;5.68;;;5.07;;
22449;SDS011;11392;57.390;-2.468;2023-06-14T12:21:37;6.38;;;4.90;;
22449;SDS011;11392;57.390;-2.468;2023-06-14T12:24:07;6.25;;;5.07;;
22449;SDS011;11392;57.390;-2.468;2023-06-14T12:26:37;6.63;;;4.93;;
22449;SDS011;11392;57.390;-2.468;2023-06-14T12:29:06;6.10;;;5.15;;
22449;SDS011;11392;57.390;-2.468;2023-06-14T12:31:34;7.97;;;5.22;;
22449;SDS011;11392;57.390;-2.468;2023-06-14T12:34:01;5.72;;;5.05;;
22449;SDS011;11392;57.390;-2.468;2023-06-14T12:36:28;5.40;;;4.90;;
22449;SDS011;11392;57.390;-2.468;2023-06-14T12:38:55;6.05;;;4.75;;
22449;SDS011;11392;57.390;-2.468;2023-06-14T12:41:22;5.47;;;4.85;;
22449;SDS011;11392;57.390;-2.468;2023-06-14T12:43:51;5.57;;;5.07;;
22449;SDS011;11392;57.390;-2.468;2023-06-14T12:46:18;6.53;;;5.70;;
22449;SDS011;11392;57.390;-2.468;2023-06-14T12:48:45;7.57;;;4.72;;
22449;SDS011;11392;57.390;-2.468;2023-06-14T12:51:12;5.15;;;4.75;;
22449;SDS011;11392;57.390;-2.468;2023-06-14T12:53:39;5.63;;;4.68;;
22449;SDS011;11392;57.390;-2.468;2023-06-14T12:56:07;5.93;;;4.43;;
22449;SDS011;11392;57.390;-2.468;2023-06-14T12:58:35;8.60;;;5.38;;
22449;SDS011;11392;57.390;-2.468;2023-06-14T13:01:02;5.55;;;4.53;;
22449;SDS011;11392;57.390;-2.468;2023-06-14T13:03:29;5.30;;;4.80;;
22449;SDS011;11392;57.390;-2.468;2023-06-14T13:05:57;5.57;;;4.72;;
22449;SDS011;11392;57.390;-2.468;2023-06-14T13:08:24;8.07;;;5.18;;
22449;SDS011;11392;57.390;-2.468;2023-06-14T13:10:51;4.90;;;4.38;;
22449;SDS011;11392;57.390;-2.468;2023-06-14T13:13:18;5.45;;;4.93;;
22449;SDS011;11392;57.390;-2.468;2023-06-14T13:15:45;5.10;;;4.70;;
22449;SDS011;11392;57.390;-2.468;2023-06-14T13:18:13;5.35;;;4.93;;
22449;SDS011;11392;57.390;-2.468;2023-06-14T13:20:40;5.75;;;4.57;;
22449;SDS011;11392;57.390;-2.468;2023-06-14T13:23:07;4.60;;;4.20;;
22449;SDS011;11392;57.390;-2.468;2023-06-14T13:25:36;5.47;;;4.80;;
22449;SDS011;11392;57.390;-2.468;2023-06-14T13:28:04;4.60;;;4.18;;
22449;SDS011;11392;57.390;-2.468;2023-06-14T13:30:32;5.43;;;4.75;;
22449;SDS011;11392;57.390;-2.468;2023-06-14T13:32:59;6.32;;;4.75;;
22449;SDS011;11392;57.390;-2.468;2023-06-14T13:35:27;5.25;;;4.75;;
22449;SDS011;11392;57.390;-2.468;2023-06-14T13:37:55;6.38;;;4.82;;
22449;SDS011;11392;57.390;-2.468;2023-06-14T13:40:22;4.50;;;4.10;;
22449;SDS011;11392;57.390;-2.468;2023-06-14T13:42:49;5.03;;;4.50;;
22449;SDS011;11392;57.390;-2.468;2023-06-14T13:45:17;6.68;;;4.88;;
22449;SDS011;11392;57.390;-2.468;2023-06-14T13:47:44;10.02;;;5.30;;
22449;SDS011;11392;57.390;-2.468;2023-06-14T13:50:15;5.35;;;4.95;;
22449;SDS011;11392;57.390;-2.468;2023-06-14T13:52:44;5.15;;;4.65;;
22449;SDS011;11392;57.390;-2.468;2023-06-14T13:55:11;5.40;;;4.65;;
22449;SDS011;11392;57.390;-2.468;2023-06-14T13:57:38;5.78;;;4.80;;
22449;SDS011;11392;57.390;-2.468;2023-06-14T14:00:06;4.72;;;4.28;;
22449;SDS011;11392;57.390;-2.468;2023-06-14T14:02:35;5.68;;;5.18;;
22449;SDS011;11392;57.390;-2.468;2023-06-14T14:05:02;6.57;;;5.03;;
22449;SDS011;11392;57.390;-2.468;2023-06-14T14:07:31;4.70;;;4.28;;
22449;SDS011;11392;57.390;-2.468;2023-06-14T14:09:58;8.30;;;5.63;;
22449;SDS011;11392;57.390;-2.468;2023-06-14T14:12:26;5.78;;;4.60;;
22449;SDS011;11392;57.390;-2.468;2023-06-14T14:14:55;48.50;;;9.40;;
22449;SDS011;11392;57.390;-2.468;2023-06-14T14:17:22;53.38;;;11.52;;
22449;SDS011;11392;57.390;-2.468;2023-06-14T14:19:49;13.25;;;5.97;;
22449;SDS011;11392;57.390;-2.468;2023-06-14T14:22:16;6.93;;;4.90;;
22449;SDS011;11392;57.390;-2.468;2023-06-14T14:24:43;8.85;;;5.57;;
22449;SDS011;11392;57.390;-2.468;2023-06-14T14:27:11;12.02;;;5.78;;
22449;SDS011;11392;57.390;-2.468;2023-06-14T14:29:38;7.35;;;5.10;;
22449;SDS011;11392;57.390;-2.468;2023-06-14T14:32:05;8.63;;;5.10;;
22449;SDS011;11392;57.390;-2.468;2023-06-14T14:34:32;5.45;;;4.65;;
22449;SDS011;11392;57.390;-2.468;2023-06-14T14:36:59;6.75;;;5.47;;
22449;SDS011;11392;57.390;-2.468;2023-06-14T14:39:26;5.35;;;4.88;;
22449;SDS011;11392;57.390;-2.468;2023-06-14T14:41:54;6.82;;;5.10;;
22449;SDS011;11392;57.390;-2.468;2023-06-14T14:44:21;6.18;;;4.85;;
22449;SDS011;11392;57.390;-2.468;2023-06-14T14:46:48;6.65;;;5.50;;
22449;SDS011;11392;57.390;-2.468;2023-06-14T14:49:17;5.38;;;4.80;;
22449;SDS011;11392;57.390;-2.468;2023-06-14T14:51:44;8.15;;;5.60;;